createdAt,value
2018-03-30T00:00:44.011Z,14.67
2018-03-30T00:03:11.600Z,13.20
2018-03-30T00:05:39.212Z,11.63
2018-03-30T00:08:07.592Z,9.73
2018-03-30T00:10:35.208Z,14.50
2018-03-30T00:13:02.822Z,11.90
2018-03-30T00:15:30.445Z,11.73
2018-03-30T00:17:58.060Z,15.80
2018-03-30T00:20:26.465Z,9.63
2018-03-30T00:22:54.080Z,11.97
2018-03-30T00:25:21.723Z,10.23
2018-03-30T00:27:49.333Z,13.40
2018-03-30T00:30:16.973Z,12.97
2018-03-30T00:32:44.590Z,12.03
2018-03-30T00:35:12.204Z,10.30
2018-03-30T00:37:39.820Z,12.53
2018-03-30T00:40:08.204Z,16.00
2018-03-30T00:42:35.825Z,8.57
2018-03-30T00:45:03.434Z,9.77
2018-03-30T00:47:31.800Z,10.77
2018-03-30T00:50:00.185Z,11.20
2018-03-30T00:52:28.564Z,11.87
2018-03-30T00:54:56.941Z,9.07
2018-03-30T00:57:24.568Z,10.97
2018-03-30T00:59:52.184Z,11.97
2018-03-30T01:02:20.582Z,10.67
2018-03-30T01:04:48.196Z,10.57
2018-03-30T01:07:15.825Z,10.63
2018-03-30T01:09:43.440Z,10.40
2018-03-30T01:12:11.068Z,8.27
2018-03-30T01:14:38.697Z,9.23
2018-03-30T01:17:07.102Z,9.57
2018-03-30T01:19:34.729Z,12.30
2018-03-30T01:22:02.333Z,9.80
2018-03-30T01:24:29.953Z,10.60
2018-03-30T01:26:57.574Z,11.10
2018-03-30T01:29:25.189Z,8.93
2018-03-30T01:31:52.813Z,12.23
2018-03-30T01:34:20.420Z,8.73
2018-03-30T01:36:48.029Z,9.70
2018-03-30T01:39:15.645Z,10.47
2018-03-30T01:41:43.261Z,9.73
2018-03-30T01:44:10.892Z,9.50
2018-03-30T01:46:38.504Z,8.10
2018-03-30T01:49:06.149Z,8.40
2018-03-30T01:51:33.766Z,9.43
2018-03-30T01:54:01.376Z,8.17
2018-03-30T01:56:28.996Z,8.23
2018-03-30T01:58:56.612Z,12.17
2018-03-30T02:01:24.240Z,10.70
2018-03-30T02:03:51.861Z,9.30
2018-03-30T02:06:19.503Z,9.17
2018-03-30T02:08:47.888Z,9.23
2018-03-30T02:11:15.501Z,11.23
2018-03-30T02:13:43.128Z,11.63
2018-03-30T02:16:10.765Z,9.60
2018-03-30T02:18:38.406Z,9.33
2018-03-30T02:21:06.018Z,9.10
2018-03-30T02:23:34.395Z,14.23
2018-03-30T02:26:02.789Z,9.37
2018-03-30T02:28:31.196Z,9.33
2018-03-30T02:30:58.826Z,9.20
2018-03-30T02:33:27.214Z,12.70
2018-03-30T02:35:55.601Z,10.63
2018-03-30T02:38:23.991Z,10.80
2018-03-30T02:40:51.613Z,11.90
2018-03-30T02:43:19.242Z,11.63
2018-03-30T02:45:46.857Z,8.87
2018-03-30T02:48:14.476Z,9.90
2018-03-30T02:50:42.092Z,8.43
2018-03-30T02:53:09.731Z,17.17
2018-03-30T02:55:37.344Z,11.00
2018-03-30T02:58:05.736Z,11.10
2018-03-30T03:00:33.401Z,13.63
2018-03-30T03:03:01.022Z,10.20
2018-03-30T03:05:28.632Z,9.80
2018-03-30T03:07:57.009Z,8.60
2018-03-30T03:10:25.395Z,8.67
2018-03-30T03:12:53.021Z,9.80
2018-03-30T03:15:20.636Z,11.23
2018-03-30T03:17:48.256Z,11.80
2018-03-30T03:20:15.872Z,8.20
2018-03-30T03:22:43.500Z,13.13
2018-03-30T03:25:11.881Z,8.70
2018-03-30T03:27:39.509Z,7.97
2018-03-30T03:30:07.121Z,8.67
2018-03-30T03:32:34.736Z,7.23
2018-03-30T03:35:02.375Z,9.60
2018-03-30T03:37:29.994Z,8.10
2018-03-30T03:39:57.610Z,8.27
2018-03-30T03:42:25.219Z,8.97
2018-03-30T03:44:52.844Z,8.30
2018-03-30T03:47:20.512Z,8.00
2018-03-30T03:49:48.128Z,7.90
2018-03-30T03:52:15.741Z,8.37
2018-03-30T03:54:43.404Z,8.80
2018-03-30T03:57:11.781Z,7.37
2018-03-30T03:59:39.400Z,9.80
2018-03-30T04:02:07.032Z,7.97
2018-03-30T04:04:34.648Z,6.97
2018-03-30T04:07:03.238Z,7.83
2018-03-30T04:09:30.844Z,7.20
2018-03-30T04:11:58.460Z,8.03
2018-03-30T04:14:26.072Z,8.03
2018-03-30T04:16:53.684Z,7.40
2018-03-30T04:19:21.306Z,8.57
2018-03-30T04:21:48.920Z,9.50
2018-03-30T04:24:16.530Z,7.90
2018-03-30T04:26:44.139Z,10.27
2018-03-30T04:29:11.761Z,9.67
2018-03-30T04:31:39.389Z,6.90
2018-03-30T04:34:06.993Z,8.83
2018-03-30T04:36:34.608Z,8.23
2018-03-30T04:39:02.229Z,8.80
2018-03-30T04:41:29.849Z,7.60
2018-03-30T04:43:57.455Z,9.10
2018-03-30T04:46:25.072Z,8.53
2018-03-30T04:48:58.748Z,9.23
2018-03-30T04:51:26.357Z,12.17
2018-03-30T04:53:53.972Z,10.13
2018-03-30T04:56:21.584Z,7.87
2018-03-30T04:58:59.959Z,7.80
2018-03-30T05:01:27.576Z,10.37
2018-03-30T05:03:55.952Z,8.00
2018-03-30T05:06:23.570Z,8.47
2018-03-30T05:08:51.181Z,8.30
2018-03-30T05:11:18.800Z,11.07
2018-03-30T05:13:46.440Z,9.57
2018-03-30T05:16:14.827Z,11.07
2018-03-30T05:18:42.445Z,10.47
2018-03-30T05:21:10.056Z,8.53
2018-03-30T05:23:38.437Z,9.00
2018-03-30T05:26:06.871Z,10.80
2018-03-30T05:28:34.452Z,9.57
2018-03-30T05:31:02.064Z,9.13
2018-03-30T05:33:29.731Z,8.13
2018-03-30T05:35:57.298Z,9.27
2018-03-30T05:38:24.917Z,9.27
2018-03-30T05:40:52.532Z,10.57
2018-03-30T05:43:20.156Z,9.13
2018-03-30T05:45:47.783Z,8.70
2018-03-30T05:48:15.396Z,10.80
2018-03-30T05:50:43.781Z,9.07
2018-03-30T05:53:12.156Z,7.17
2018-03-30T05:55:39.780Z,12.37
2018-03-30T05:58:07.402Z,9.80
2018-03-30T06:00:35.800Z,7.27
2018-03-30T06:03:04.173Z,12.00
2018-03-30T06:05:32.553Z,9.87
2018-03-30T06:08:00.932Z,9.67
2018-03-30T06:10:29.348Z,8.00
2018-03-30T06:12:56.962Z,10.10
2018-03-30T06:15:25.345Z,8.20
2018-03-30T06:17:52.961Z,8.70
2018-03-30T06:20:20.572Z,9.70
2018-03-30T06:22:48.188Z,12.53
2018-03-30T06:25:15.817Z,10.80
2018-03-30T06:27:43.464Z,8.73
2018-03-30T06:30:11.080Z,10.30
2018-03-30T06:32:38.701Z,13.40
2018-03-30T06:35:06.316Z,9.70
2018-03-30T06:37:33.937Z,8.47
2018-03-30T06:40:01.548Z,10.60
2018-03-30T06:42:29.168Z,8.00
2018-03-30T06:44:56.800Z,7.97
2018-03-30T06:47:24.416Z,9.23
2018-03-30T06:49:52.801Z,9.87
2018-03-30T06:52:20.406Z,9.67
2018-03-30T06:54:48.029Z,7.30
2018-03-30T06:57:16.422Z,11.17
2018-03-30T06:59:44.033Z,9.93
2018-03-30T07:02:11.644Z,9.43
2018-03-30T07:04:40.041Z,9.70
2018-03-30T07:07:08.425Z,9.07
2018-03-30T07:09:36.860Z,11.37
2018-03-30T07:12:04.472Z,8.90
2018-03-30T07:14:32.848Z,9.20
2018-03-30T07:17:01.234Z,9.57
2018-03-30T07:19:29.616Z,8.60
2018-03-30T07:21:57.996Z,8.73
2018-03-30T07:24:25.636Z,7.30
2018-03-30T07:26:53.252Z,7.33
2018-03-30T07:29:20.864Z,8.60
2018-03-30T07:31:50.476Z,8.37
2018-03-30T07:34:18.088Z,11.27
2018-03-30T07:36:45.704Z,8.10
2018-03-30T07:39:13.320Z,9.13
2018-03-30T07:41:40.991Z,7.87
2018-03-30T07:44:08.616Z,9.23
2018-03-30T07:46:36.228Z,9.93
2018-03-30T07:49:03.855Z,7.77
2018-03-30T07:51:31.461Z,8.90
2018-03-30T07:53:59.068Z,9.43
2018-03-30T07:56:26.685Z,15.57
2018-03-30T07:58:54.309Z,8.80
2018-03-30T08:01:22.697Z,9.40
2018-03-30T08:03:50.309Z,10.03
2018-03-30T08:06:17.929Z,9.80
2018-03-30T08:08:46.312Z,8.20
2018-03-30T08:11:13.925Z,8.90
2018-03-30T08:13:41.541Z,8.00
2018-03-30T08:16:09.155Z,7.70
2018-03-30T08:18:36.776Z,7.53
2018-03-30T08:21:04.436Z,8.43
2018-03-30T08:23:32.000Z,9.03
2018-03-30T08:25:59.625Z,10.20
2018-03-30T08:28:27.236Z,7.37
2018-03-30T08:30:54.857Z,6.00
2018-03-30T08:33:22.476Z,6.93
2018-03-30T08:35:50.860Z,7.67
2018-03-30T08:38:19.244Z,5.93
2018-03-30T08:40:47.636Z,6.87
2018-03-30T08:43:16.007Z,7.00
2018-03-30T08:45:44.409Z,7.73
2018-03-30T08:48:12.025Z,6.60
2018-03-30T08:50:39.640Z,8.00
2018-03-30T08:53:08.045Z,9.47
2018-03-30T08:55:35.653Z,5.10
2018-03-30T08:58:03.273Z,4.73
2018-03-30T09:00:30.896Z,7.10
2018-03-30T09:02:58.512Z,5.83
2018-03-30T09:05:26.144Z,4.00
2018-03-30T09:07:53.762Z,4.17
2018-03-30T09:10:21.385Z,4.20
2018-03-30T09:12:49.768Z,5.17
2018-03-30T09:15:17.388Z,5.03
2018-03-30T09:17:45.009Z,3.47
2018-03-30T09:20:12.624Z,3.77
2018-03-30T09:22:40.261Z,3.97
2018-03-30T09:25:07.880Z,3.90
2018-03-30T09:27:36.266Z,4.33
2018-03-30T09:30:04.658Z,4.73
2018-03-30T09:32:33.069Z,3.13
2018-03-30T09:35:01.427Z,3.63
2018-03-30T09:37:29.811Z,3.20
2018-03-30T09:39:57.432Z,3.30
2018-03-30T09:42:25.047Z,2.50
2018-03-30T09:44:52.669Z,3.33
2018-03-30T09:47:20.294Z,2.53
2018-03-30T09:49:47.913Z,2.30
2018-03-30T09:52:15.532Z,2.57
2018-03-30T09:54:43.160Z,5.07
2018-03-30T09:57:10.825Z,2.47
2018-03-30T09:59:38.432Z,5.50
2018-03-30T10:02:06.048Z,3.70
2018-03-30T10:04:33.674Z,3.17
2018-03-30T10:07:01.302Z,3.90
2018-03-30T10:09:29.672Z,3.80
2018-03-30T10:11:58.061Z,3.80
2018-03-30T10:14:26.453Z,4.83
2018-03-30T10:16:54.073Z,3.43
2018-03-30T10:19:21.710Z,2.93
2018-03-30T10:21:49.316Z,4.43
2018-03-30T10:24:16.953Z,4.03
2018-03-30T10:26:44.581Z,4.73
2018-03-30T10:29:12.964Z,4.63
2018-03-30T10:31:41.349Z,3.57
2018-03-30T10:34:08.964Z,3.97
2018-03-30T10:36:36.596Z,4.37
2018-03-30T10:39:04.213Z,3.80
2018-03-30T10:41:31.827Z,3.83
2018-03-30T10:43:59.449Z,3.27
2018-03-30T10:46:27.061Z,4.70
2018-03-30T10:48:54.677Z,4.90
2018-03-30T10:51:22.301Z,5.97
2018-03-30T10:53:49.918Z,4.17
2018-03-30T10:56:18.357Z,3.97
2018-03-30T10:58:46.684Z,5.30
2018-03-30T11:01:14.304Z,5.43
2018-03-30T11:03:41.922Z,4.30
2018-03-30T11:06:09.562Z,4.57
2018-03-30T11:08:37.952Z,5.57
2018-03-30T11:11:05.581Z,5.87
2018-03-30T11:13:33.200Z,4.50
2018-03-30T11:16:01.581Z,4.23
2018-03-30T11:18:29.969Z,8.43
2018-03-30T11:20:58.352Z,4.07
2018-03-30T11:23:26.749Z,3.67
2018-03-30T11:25:54.384Z,4.93
2018-03-30T11:28:21.984Z,4.73
2018-03-30T11:30:49.604Z,4.80
2018-03-30T11:33:17.242Z,8.17
2018-03-30T11:35:44.864Z,4.10
2018-03-30T11:38:13.257Z,5.43
2018-03-30T11:40:41.732Z,5.70
2018-03-30T11:43:10.128Z,4.33
2018-03-30T11:45:38.501Z,4.47
2018-03-30T11:48:06.893Z,4.77
2018-03-30T11:50:35.278Z,5.97
2018-03-30T11:53:02.891Z,5.07
2018-03-30T11:55:30.513Z,5.23
2018-03-30T11:57:58.133Z,4.50
2018-03-30T12:00:25.753Z,4.23
2018-03-30T12:02:53.377Z,5.37
2018-03-30T12:05:20.994Z,3.93
2018-03-30T12:07:48.624Z,4.33
2018-03-30T12:10:17.003Z,5.80
2018-03-30T12:12:45.403Z,3.70
2018-03-30T12:15:13.021Z,4.33
2018-03-30T12:17:40.644Z,3.80
2018-03-30T12:20:08.269Z,3.63
2018-03-30T12:22:35.876Z,3.73
2018-03-30T12:25:03.502Z,3.20
2018-03-30T12:27:31.108Z,4.63
2018-03-30T12:29:58.732Z,5.27
2018-03-30T12:32:26.344Z,2.83
2018-03-30T12:34:53.960Z,2.90
2018-03-30T12:37:22.353Z,5.00
2018-03-30T12:39:49.977Z,5.13
2018-03-30T12:42:17.592Z,3.37
2018-03-30T12:44:45.985Z,5.30
2018-03-30T12:47:14.372Z,4.67
2018-03-30T12:49:41.988Z,3.67
2018-03-30T12:52:09.605Z,2.83
2018-03-30T12:54:37.993Z,3.80
2018-03-30T12:57:05.604Z,5.13
2018-03-30T12:59:33.227Z,3.33
2018-03-30T13:02:00.856Z,2.87
2018-03-30T13:04:28.464Z,4.83
2018-03-30T13:06:56.956Z,2.90
2018-03-30T13:09:24.572Z,3.43
2018-03-30T13:11:52.192Z,3.33
2018-03-30T13:14:19.812Z,3.30
2018-03-30T13:16:47.428Z,5.33
2018-03-30T13:19:15.045Z,3.63
2018-03-30T13:21:42.658Z,3.30
2018-03-30T13:24:10.272Z,5.50
2018-03-30T13:26:37.964Z,3.97
2018-03-30T13:29:05.529Z,4.23
2018-03-30T13:31:33.913Z,2.93
2018-03-30T13:34:01.533Z,6.67
2018-03-30T13:36:29.156Z,4.40
2018-03-30T13:38:56.780Z,4.97
2018-03-30T13:41:24.397Z,3.67
2018-03-30T13:43:52.013Z,4.83
2018-03-30T13:46:19.634Z,4.23
2018-03-30T13:48:47.259Z,3.50
2018-03-30T13:51:28.368Z,2.40
2018-03-30T13:53:57.420Z,3.07
2018-03-30T13:56:25.745Z,3.10
2018-03-30T13:58:53.356Z,4.53
2018-03-30T14:01:28.453Z,5.23
2018-03-30T14:04:08.816Z,3.43
2018-03-30T14:06:40.105Z,3.90
2018-03-30T14:09:13.569Z,2.60
2018-03-30T14:11:42.605Z,5.60
2018-03-30T14:14:10.224Z,2.87
2018-03-30T14:16:51.040Z,2.80
2018-03-30T14:19:23.984Z,4.37
2018-03-30T14:22:00.198Z,6.83
2018-03-30T14:24:28.720Z,3.00
2018-03-30T14:27:07.965Z,5.60
2018-03-30T14:29:39.080Z,3.10
2018-03-30T14:35:03.213Z,4.20
2018-03-30T14:37:31.625Z,4.73
2018-03-30T14:40:07.107Z,4.17
2018-03-30T14:42:35.564Z,4.07
2018-03-30T14:45:25.733Z,4.23
2018-03-30T14:47:57.990Z,3.80
2018-03-30T14:50:31.069Z,4.97
2018-03-30T14:52:59.546Z,3.27
2018-03-30T14:55:50.889Z,4.60
2018-03-30T14:58:35.832Z,4.77
2018-03-30T15:01:05.708Z,5.60
2018-03-30T15:03:36.188Z,4.13
2018-03-30T15:06:08.813Z,4.03
2018-03-30T15:08:39.156Z,4.93
2018-03-30T15:11:09.252Z,3.97
2018-03-30T15:13:37.716Z,5.93
2018-03-30T15:16:10.005Z,5.43
2018-03-30T15:18:37.625Z,5.17
2018-03-30T15:21:10.893Z,4.47
2018-03-30T15:23:38.509Z,3.77
2018-03-30T15:29:01.277Z,3.43
2018-03-30T15:31:47.110Z,3.10
2018-03-30T15:34:27.280Z,3.20
2018-03-30T15:39:58.474Z,3.43
2018-03-30T15:42:28.828Z,2.43
2018-03-30T15:45:07.296Z,3.50
2018-03-30T15:47:34.917Z,3.90
2018-03-30T15:50:02.538Z,3.37
2018-03-30T15:52:33.641Z,3.67
2018-03-30T15:55:01.261Z,3.17
2018-03-30T15:57:28.876Z,5.70
2018-03-30T15:59:57.412Z,2.83
2018-03-30T16:02:25.028Z,3.37
2018-03-30T16:04:52.659Z,4.60
2018-03-30T16:07:20.268Z,3.03
2018-03-30T16:09:53.315Z,2.57
2018-03-30T16:12:26.485Z,3.73
2018-03-30T16:14:54.877Z,3.07
2018-03-30T16:17:22.508Z,2.73
2018-03-30T16:19:49.634Z,2.43
2018-03-30T16:22:16.764Z,2.90
2018-03-30T16:24:43.942Z,4.23
2018-03-30T16:27:11.797Z,4.63
2018-03-30T16:29:38.929Z,3.33
2018-03-30T16:32:06.059Z,2.33
2018-03-30T16:34:33.192Z,2.97
2018-03-30T16:37:00.329Z,2.53
2018-03-30T16:39:27.462Z,5.10
2018-03-30T16:41:54.592Z,2.40
2018-03-30T16:44:22.492Z,4.03
2018-03-30T16:46:49.626Z,4.47
2018-03-30T16:49:16.759Z,10.23
2018-03-30T16:51:43.889Z,8.20
2018-03-30T16:54:11.031Z,7.67
2018-03-30T16:56:38.161Z,6.93
2018-03-30T16:59:05.286Z,4.67
2018-03-30T17:01:33.185Z,7.93
2018-03-30T17:04:00.327Z,5.43
2018-03-30T17:06:27.457Z,9.50
2018-03-30T17:08:54.593Z,8.40
2018-03-30T17:11:21.720Z,5.87
2018-03-30T17:13:48.849Z,4.87
2018-03-30T17:16:15.976Z,8.13
2018-03-30T17:18:43.110Z,7.60
2018-03-30T17:21:10.246Z,6.17
2018-03-30T17:23:37.372Z,5.57
2018-03-30T17:26:04.518Z,9.80
2018-03-30T17:28:31.644Z,5.67
2018-03-30T17:30:58.777Z,6.07
2018-03-30T17:33:25.925Z,5.80
2018-03-30T17:35:53.064Z,6.27
2018-03-30T17:38:20.193Z,7.03
2018-03-30T17:40:47.326Z,7.60
2018-03-30T17:43:15.244Z,6.70
2018-03-30T17:45:42.371Z,4.73
2018-03-30T17:48:10.276Z,5.63
2018-03-30T17:50:37.408Z,5.97
2018-03-30T17:53:04.532Z,8.03
2018-03-30T17:55:31.677Z,5.83
2018-03-30T17:57:58.807Z,6.53
2018-03-30T18:00:27.101Z,5.30
2018-03-30T18:02:54.236Z,9.73
2018-03-30T18:05:21.438Z,5.90
2018-03-30T18:07:48.544Z,4.93
2018-03-30T18:10:15.672Z,6.50
2018-03-30T18:12:42.809Z,5.63
2018-03-30T18:15:10.700Z,5.33
2018-03-30T18:17:37.839Z,3.60
2018-03-30T18:20:05.728Z,5.20
2018-03-30T18:22:32.852Z,5.27
2018-03-30T18:25:00.752Z,6.17
2018-03-30T18:27:27.881Z,5.83
2018-03-30T18:29:55.803Z,6.33
2018-03-30T18:32:22.928Z,7.70
2018-03-30T18:34:50.073Z,6.47
2018-03-30T18:37:17.960Z,7.73
2018-03-30T18:39:45.092Z,9.07
2018-03-30T18:42:12.976Z,5.63
2018-03-30T18:44:40.113Z,7.20
2018-03-30T18:47:07.240Z,8.40
2018-03-30T18:49:34.378Z,5.73
2018-03-30T18:52:01.505Z,5.10
2018-03-30T18:54:28.697Z,4.93
2018-03-30T18:56:56.543Z,6.87
2018-03-30T18:59:23.680Z,3.77
2018-03-30T19:01:50.816Z,4.33
2018-03-30T19:04:18.715Z,4.07
2018-03-30T19:06:45.849Z,4.50
2018-03-30T19:09:13.744Z,6.37
2018-03-30T19:11:40.876Z,7.60
2018-03-30T19:14:08.780Z,7.60
2018-03-30T19:16:35.909Z,5.93
2018-03-30T19:19:03.806Z,4.27
2018-03-30T19:21:30.953Z,4.10
2018-03-30T19:23:58.067Z,4.57
2018-03-30T19:26:25.220Z,8.10
2018-03-30T19:28:52.361Z,6.97
2018-03-30T19:31:19.485Z,5.57
2018-03-30T19:33:46.616Z,6.13
2018-03-30T19:36:14.511Z,6.20
2018-03-30T19:38:41.645Z,5.90
2018-03-30T19:41:08.846Z,7.40
2018-03-30T19:43:36.696Z,5.73
2018-03-30T19:46:03.821Z,7.17
2018-03-30T19:48:30.956Z,5.63
2018-03-30T19:50:58.084Z,5.83
2018-03-30T19:53:25.208Z,7.10
2018-03-30T19:55:52.341Z,9.20
2018-03-30T19:58:19.464Z,5.63
2018-03-30T20:00:46.659Z,10.20
2018-03-30T20:03:13.776Z,8.97
2018-03-30T20:05:40.908Z,9.70
2018-03-30T20:08:08.040Z,8.17
2018-03-30T20:10:35.180Z,7.70
2018-03-30T20:13:02.321Z,7.27
2018-03-30T20:15:30.233Z,6.07
2018-03-30T20:17:57.356Z,12.60
2018-03-30T20:20:24.479Z,9.60
2018-03-30T20:22:51.618Z,7.57
2018-03-30T20:25:18.741Z,8.93
2018-03-30T20:27:45.880Z,9.77
2018-03-30T20:30:13.012Z,9.97
2018-03-30T20:32:40.141Z,9.73
2018-03-30T20:35:07.292Z,7.33
2018-03-30T20:37:34.421Z,9.27
2018-03-30T20:40:01.544Z,8.00
2018-03-30T20:42:28.679Z,8.00
2018-03-30T20:44:55.805Z,9.57
2018-03-30T20:47:22.928Z,9.27
2018-03-30T20:49:50.048Z,8.80
2018-03-30T20:52:17.177Z,11.03
2018-03-30T20:54:44.304Z,8.50
2018-03-30T20:57:11.432Z,9.83
2018-03-30T20:59:38.567Z,7.13
2018-03-30T21:02:06.465Z,5.70
2018-03-30T21:04:33.596Z,6.63
2018-03-30T21:07:01.495Z,7.13
2018-03-30T21:09:28.627Z,5.43
2018-03-30T21:11:55.757Z,6.73
2018-03-30T21:14:22.888Z,5.97
2018-03-30T21:16:50.040Z,5.30
2018-03-30T21:19:17.137Z,6.70
2018-03-30T21:21:45.037Z,6.20
2018-03-30T21:24:12.164Z,7.37
2018-03-30T21:26:40.061Z,6.67
2018-03-30T21:29:07.185Z,9.73
2018-03-30T21:31:35.081Z,8.37
2018-03-30T21:34:02.204Z,6.87
2018-03-30T21:36:29.350Z,5.40
2018-03-30T21:38:56.476Z,5.93
2018-03-30T21:41:23.615Z,9.67
2018-03-30T21:43:50.743Z,5.93
2018-03-30T21:46:18.633Z,4.87
2018-03-30T21:48:45.775Z,6.50
2018-03-30T21:51:12.896Z,4.80
2018-03-30T21:53:40.036Z,4.57
2018-03-30T21:56:07.162Z,6.30
2018-03-30T21:58:34.285Z,5.07
2018-03-30T22:01:02.188Z,7.07
2018-03-30T22:03:29.316Z,7.20
2018-03-30T22:05:56.444Z,6.03
2018-03-30T22:08:23.576Z,4.77
2018-03-30T22:10:50.701Z,4.60
2018-03-30T22:13:17.852Z,6.80
2018-03-30T22:15:44.959Z,4.27
2018-03-30T22:18:12.097Z,4.27
2018-03-30T22:20:39.223Z,4.43
2018-03-30T22:23:06.357Z,3.80
2018-03-30T22:25:34.249Z,4.30
2018-03-30T22:28:01.380Z,2.43
2018-03-30T22:30:29.272Z,2.57
2018-03-30T22:32:56.388Z,3.30
2018-03-30T22:35:24.284Z,3.80
2018-03-30T22:37:51.408Z,6.60
2018-03-30T22:40:18.536Z,4.00
2018-03-30T22:42:45.664Z,5.60
2018-03-30T22:45:12.878Z,5.67
2018-03-30T22:47:40.010Z,3.73
2018-03-30T22:50:07.147Z,5.10
2018-03-30T22:52:34.270Z,3.07
2018-03-30T22:55:01.467Z,3.97
2018-03-30T22:57:28.569Z,4.03
2018-03-30T22:59:56.456Z,2.30
2018-03-30T23:02:23.585Z,2.77
2018-03-30T23:04:51.482Z,3.67
2018-03-30T23:07:18.621Z,2.37
2018-03-30T23:09:46.510Z,3.97
2018-03-30T23:12:13.640Z,2.80
2018-03-30T23:14:41.524Z,2.63
2018-03-30T23:17:09.416Z,2.60
2018-03-30T23:19:36.541Z,3.80
2018-03-30T23:22:04.424Z,3.23
2018-03-30T23:24:31.570Z,3.77
2018-03-30T23:26:59.455Z,2.47
2018-03-30T23:29:26.580Z,4.83
2018-03-30T23:31:53.704Z,2.70
2018-03-30T23:34:20.833Z,3.40
2018-03-30T23:36:47.968Z,5.27
2018-03-30T23:39:15.100Z,5.03
2018-03-30T23:41:42.223Z,3.20
2018-03-30T23:44:09.353Z,2.63
2018-03-30T23:46:36.482Z,3.30
2018-03-30T23:49:04.370Z,4.87
2018-03-30T23:51:31.492Z,5.27
2018-03-30T23:53:59.388Z,3.50
2018-03-30T23:56:27.283Z,4.40
2018-03-30T23:58:54.406Z,6.00
